createdAt,value
2023-04-28T02:09:04.218Z,55.67
2023-04-28T02:11:35.613Z,55.61
2023-04-28T02:14:05.413Z,54.89
2023-04-28T02:16:34.976Z,55.11
2023-04-28T02:19:04.924Z,54.26
2023-04-28T02:21:34.269Z,53.19
2023-04-28T02:24:03.410Z,52.40
2023-04-28T02:26:35.247Z,52.30
2023-04-28T02:29:07.814Z,51.34
2023-04-28T02:31:37.376Z,50.22
2023-04-28T02:34:06.965Z,48.86
2023-04-28T02:36:36.192Z,48.02
2023-04-28T02:39:05.456Z,47.68
2023-04-28T02:41:35.711Z,48.02
2023-04-28T02:44:05.357Z,46.79
2023-04-28T02:46:34.471Z,47.87
2023-04-28T02:49:04.675Z,47.57
2023-04-28T02:51:34.220Z,47.20
2023-04-28T02:54:03.590Z,46.89
2023-04-28T02:56:33.097Z,47.03
2023-04-28T02:59:03.566Z,48.90
2023-04-28T03:01:32.814Z,48.94
2023-04-28T03:04:02.305Z,50.00
2023-04-28T03:06:31.633Z,49.70
2023-04-28T03:09:02.123Z,50.26
2023-04-28T03:11:31.762Z,49.62
2023-04-28T03:14:01.358Z,49.12
2023-04-28T03:16:30.634Z,48.97
2023-04-28T03:19:00.388Z,49.54
2023-04-28T03:21:30.111Z,51.04
2023-04-28T03:23:59.498Z,50.09
2023-04-28T03:26:28.759Z,51.76
2023-04-28T03:28:58.141Z,51.22
2023-04-28T03:31:28.128Z,51.67
2023-04-28T03:33:57.344Z,51.52
2023-04-28T03:36:26.755Z,51.13
2023-04-28T04:48:04.729Z,47.43
2023-04-28T04:50:34.147Z,47.75
2023-04-28T04:53:04.508Z,48.22
2023-04-28T04:55:34.813Z,48.15
2023-04-28T04:58:05.550Z,47.73
2023-04-28T05:01:00.719Z,47.73
2023-04-28T05:03:30.304Z,47.28
2023-04-28T05:06:00.976Z,46.46
2023-04-28T05:08:41.855Z,46.52
2023-04-28T05:11:11.041Z,46.81
2023-04-28T05:13:42.347Z,47.04
2023-04-28T05:16:12.220Z,46.87
2023-04-28T05:19:03.703Z,46.83
2023-04-28T05:21:33.638Z,46.18
2023-04-28T05:24:03.615Z,41.36
2023-04-28T05:26:33.668Z,43.78
2023-04-28T05:29:08.788Z,45.81
2023-04-28T05:31:38.418Z,46.07
2023-04-28T05:34:07.747Z,45.79
2023-04-28T05:36:37.294Z,45.38
2023-04-28T05:39:09.646Z,45.72
2023-04-28T05:41:40.295Z,44.97
2023-04-28T05:44:09.517Z,44.49
2023-04-28T05:46:39.034Z,41.64
2023-04-28T05:49:40.237Z,42.88
2023-04-28T05:52:10.440Z,40.37
2023-04-28T05:54:39.822Z,39.83
2023-04-28T05:57:09.680Z,40.73
2023-04-28T05:59:39.884Z,41.16
2023-04-28T06:02:08.963Z,42.29
2023-04-28T06:04:40.965Z,42.97
2023-04-28T06:07:10.757Z,43.20
2023-04-28T06:09:41.353Z,42.82
2023-04-28T06:12:10.833Z,41.47
2023-04-28T06:14:41.612Z,40.99
2023-04-28T06:17:11.396Z,40.46
2023-04-28T06:19:40.849Z,40.57
2023-04-28T06:22:10.136Z,41.09
2023-04-28T06:24:42.889Z,39.56
2023-04-28T06:27:16.327Z,35.78
2023-04-28T06:29:46.684Z,40.07
2023-04-28T06:32:15.932Z,32.97
2023-04-28T06:34:45.650Z,36.64
2023-04-28T06:37:15.156Z,34.03
2023-04-28T06:39:44.519Z,38.47
2023-04-28T06:42:13.710Z,36.00
2023-04-28T06:44:45.117Z,33.96
2023-04-28T06:47:15.033Z,36.94
2023-04-28T06:49:45.981Z,35.21
2023-04-28T06:52:15.928Z,35.99
2023-04-28T06:54:45.179Z,36.45
2023-04-28T06:57:14.388Z,34.28
2023-04-28T06:59:45.082Z,37.67
2023-04-28T07:02:15.763Z,37.57
2023-04-28T07:04:45.151Z,36.45
2023-04-28T07:07:15.018Z,37.48
2023-04-28T07:09:44.771Z,37.77
2023-04-28T07:12:14.277Z,38.06
2023-04-28T07:14:43.379Z,38.33
2023-04-28T07:17:13.846Z,38.93
2023-04-28T07:19:43.278Z,38.98
2023-04-28T07:22:12.774Z,36.03
2023-04-28T07:24:42.264Z,37.68
2023-04-28T07:27:11.737Z,40.03
2023-04-28T07:29:40.922Z,39.71
2023-04-28T07:42:36.289Z,33.51
2023-04-28T07:45:07.032Z,34.68
2023-04-28T07:47:37.860Z,33.23
2023-04-28T07:50:08.007Z,34.34
2023-04-28T07:52:37.824Z,35.94
2023-04-28T07:55:07.491Z,36.17
2023-04-28T07:57:37.118Z,36.24
2023-04-28T08:00:07.775Z,38.51
2023-04-28T08:02:44.002Z,39.74
2023-04-28T08:05:14.731Z,40.63
2023-04-28T08:07:44.590Z,41.74
2023-04-28T08:10:14.613Z,39.13
2023-04-28T08:12:46.236Z,40.08
2023-04-28T08:15:16.724Z,39.55
2023-04-28T08:17:47.805Z,42.03
2023-04-28T08:20:23.146Z,39.99
2023-04-28T08:22:53.817Z,41.20
2023-04-28T08:25:24.313Z,40.82
2023-04-28T08:27:58.097Z,39.71
2023-04-28T08:30:28.347Z,30.90
2023-04-28T08:32:57.623Z,36.46
2023-04-28T08:35:27.694Z,37.06
2023-04-28T08:37:57.214Z,38.59
2023-04-28T09:15:10.417Z,41.75
2023-04-28T09:17:53.393Z,42.42
2023-04-28T09:20:27.509Z,42.38
2023-04-28T09:22:58.324Z,42.17
2023-04-28T09:25:29.032Z,42.16
2023-04-28T09:27:58.616Z,41.26
2023-04-28T09:30:43.648Z,41.49
2023-04-28T09:33:12.840Z,40.97
2023-04-28T09:35:44.097Z,40.41
2023-04-28T09:38:14.045Z,40.38
2023-04-28T09:41:05.903Z,41.00
2023-04-28T09:43:36.920Z,40.61
2023-04-28T09:46:07.300Z,36.33
2023-04-28T09:48:39.996Z,39.54
2023-04-28T09:51:12.925Z,38.94
2023-04-28T09:53:43.110Z,40.09
2023-04-28T09:56:13.018Z,40.27
2023-04-28T09:58:44.691Z,39.62
2023-04-28T10:01:14.874Z,38.00
2023-04-28T10:03:45.669Z,38.64
2023-04-28T10:06:15.869Z,36.45
2023-04-28T10:08:46.537Z,35.04
2023-04-28T10:11:19.202Z,33.39
2023-04-28T10:13:48.732Z,38.39
2023-04-28T10:16:19.038Z,38.43
2023-04-28T10:18:48.841Z,38.89
2023-04-28T10:21:20.923Z,40.76
2023-04-28T10:23:50.144Z,39.12
2023-04-28T10:26:21.275Z,41.00
2023-04-28T10:28:53.209Z,41.08
2023-04-28T10:31:23.994Z,40.52
2023-04-28T10:33:53.879Z,41.97
2023-04-28T10:36:56.031Z,42.61
2023-04-28T10:39:25.336Z,43.11
2023-04-28T10:41:54.662Z,42.01
2023-04-28T10:44:32.881Z,42.94
2023-04-28T10:47:06.057Z,43.71
2023-04-28T10:49:59.485Z,42.53
2023-04-28T10:52:41.670Z,44.27
2023-04-28T10:55:31.970Z,44.45
2023-04-28T10:58:29.431Z,44.21
2023-04-28T11:01:32.269Z,43.78
2023-04-28T11:04:25.798Z,44.94
2023-04-28T11:07:15.924Z,44.64
2023-04-28T11:09:45.115Z,45.72
2023-04-28T11:12:14.592Z,45.70
2023-04-28T11:14:44.257Z,45.24
2023-04-28T11:17:18.498Z,45.17
2023-04-28T11:19:52.430Z,45.10
2023-04-28T11:22:24.413Z,44.85
2023-04-28T11:25:02.699Z,44.94
2023-04-28T11:27:34.237Z,44.70
2023-04-28T11:30:04.216Z,42.01
2023-04-28T11:32:36.227Z,44.44
2023-04-28T11:35:10.784Z,44.57
2023-04-28T11:37:40.130Z,44.23
2023-04-28T11:40:14.199Z,44.22
2023-04-28T11:42:50.583Z,44.20
2023-04-28T11:45:20.038Z,43.04
2023-04-28T11:47:49.519Z,43.92
2023-04-28T11:50:19.283Z,43.42
2023-04-28T11:52:53.860Z,43.30
2023-04-28T11:55:23.997Z,43.01
2023-04-28T11:58:19.206Z,40.26
2023-04-28T12:01:12.130Z,42.42
2023-04-28T12:03:46.370Z,43.72
2023-04-28T12:06:20.674Z,44.22
2023-04-28T12:08:50.985Z,43.46
2023-04-28T12:11:22.835Z,43.66
2023-04-28T12:14:07.185Z,43.24
2023-04-28T12:16:46.504Z,43.27
2023-04-28T12:19:17.063Z,42.59
2023-04-28T12:21:46.520Z,42.52
2023-04-28T12:24:21.265Z,43.00
2023-04-28T12:26:50.969Z,42.79
2023-04-28T12:29:40.907Z,41.26
2023-04-28T12:32:12.987Z,40.85
2023-04-28T12:34:44.511Z,40.58
2023-04-28T12:37:14.844Z,40.50
2023-04-28T12:39:44.461Z,39.55
2023-04-28T12:42:13.893Z,37.43
2023-04-28T12:44:43.582Z,38.93
2023-04-28T12:47:12.694Z,38.31
2023-04-28T12:49:42.652Z,38.98
2023-04-28T12:52:13.073Z,38.86
2023-04-28T12:54:48.282Z,38.79
2023-04-28T12:57:21.830Z,35.95
2023-04-28T12:59:53.435Z,37.91
2023-04-28T13:02:23.074Z,39.90
2023-04-28T13:04:54.718Z,41.09
2023-04-28T13:10:28.084Z,40.32
2023-04-28T13:13:00.355Z,39.01
2023-04-28T13:15:38.751Z,40.79
2023-04-28T13:18:09.298Z,41.71
2023-04-28T13:20:39.237Z,42.19
2023-04-28T13:23:09.050Z,43.15
2023-04-28T13:25:39.092Z,42.70
2023-04-28T13:28:08.937Z,42.55
2023-04-28T13:30:38.754Z,42.47
2023-04-28T13:33:09.096Z,42.91
2023-04-28T13:35:39.039Z,43.15
2023-04-28T13:38:08.755Z,42.92
2023-04-28T13:40:39.526Z,42.71
2023-04-28T13:43:09.123Z,42.66
2023-04-28T13:45:38.261Z,42.61
2023-04-28T13:48:09.333Z,43.26
2023-04-28T13:50:39.629Z,42.62
2023-04-28T13:53:09.400Z,39.28
2023-04-28T13:55:39.466Z,41.92
2023-04-28T13:58:08.947Z,41.27
2023-04-28T14:00:38.830Z,42.06
2023-04-28T14:03:09.157Z,42.39
2023-04-28T14:05:48.991Z,42.03
2023-04-28T14:08:21.301Z,42.59
2023-04-28T14:10:53.561Z,42.70
2023-04-28T14:13:23.192Z,42.87
2023-04-28T14:15:58.944Z,42.13
2023-04-28T14:18:30.434Z,43.12
2023-04-28T14:21:09.443Z,42.71
2023-04-28T14:23:39.609Z,42.81
2023-04-28T14:26:09.674Z,43.69
2023-04-28T14:28:39.467Z,43.37
2023-04-28T14:31:11.607Z,43.61
2023-04-28T14:33:41.688Z,43.53
2023-04-28T14:36:11.767Z,43.61
2023-04-28T14:38:41.141Z,44.07
2023-04-28T14:41:11.063Z,43.95
2023-04-28T14:43:40.800Z,44.22
2023-04-28T14:46:11.032Z,44.09
2023-04-28T14:48:40.773Z,43.51
2023-04-28T14:51:10.263Z,44.03
2023-04-28T14:53:39.787Z,44.27
2023-04-28T14:56:19.131Z,44.27
2023-04-28T14:58:49.777Z,44.52
2023-04-28T15:01:19.812Z,44.14
2023-04-28T15:03:49.576Z,44.61
2023-04-28T15:06:19.804Z,44.73
2023-04-28T15:08:49.803Z,43.75
2023-04-28T15:11:20.086Z,45.00
2023-04-28T15:13:50.183Z,45.22
2023-04-28T15:16:21.316Z,45.64
2023-04-28T15:22:55.221Z,45.19
2023-04-28T15:25:26.213Z,45.16
2023-04-28T15:27:56.046Z,45.55
2023-04-28T15:30:26.192Z,46.24
2023-04-28T15:32:56.104Z,46.66
2023-04-28T15:35:26.416Z,46.76
2023-04-28T15:37:56.978Z,47.01
2023-04-28T15:40:27.532Z,47.46
2023-04-28T15:42:57.922Z,47.23
2023-04-28T15:45:28.626Z,47.53
2023-04-28T15:47:58.316Z,47.62
2023-04-28T15:50:28.069Z,47.84
2023-04-28T15:52:57.741Z,48.12
2023-04-28T15:55:27.305Z,47.84
2023-04-28T15:57:58.007Z,47.67
2023-04-28T16:00:27.587Z,47.81
2023-04-28T16:02:57.022Z,48.15
2023-04-28T16:05:26.742Z,47.92
2023-04-28T16:07:56.165Z,48.49
2023-04-28T16:10:25.733Z,48.45
2023-04-28T16:12:55.523Z,48.69
2023-04-28T16:15:25.145Z,48.16
2023-04-28T16:17:54.679Z,48.31
2023-04-28T16:20:25.121Z,48.14
2023-04-28T16:22:55.210Z,48.24
2023-04-28T16:25:24.945Z,48.36
2023-04-28T16:27:54.452Z,48.45
2023-04-28T16:30:24.085Z,48.50
2023-04-28T16:32:54.336Z,48.33
2023-04-28T16:35:24.236Z,47.86
2023-04-28T16:37:53.814Z,48.24
2023-04-28T16:40:23.600Z,47.91
2023-04-28T16:42:53.591Z,48.31
2023-04-28T16:45:23.858Z,48.47
2023-04-28T16:47:53.813Z,48.00
2023-04-28T16:50:23.214Z,48.12
2023-04-28T16:52:52.802Z,48.33
2023-04-28T16:55:22.693Z,48.45
2023-04-28T16:57:52.358Z,48.15
2023-04-28T17:00:22.929Z,48.59
2023-04-28T17:02:52.485Z,48.30
2023-04-28T17:05:23.912Z,49.31
2023-04-28T17:07:53.573Z,49.39
2023-04-28T17:10:23.910Z,49.67
2023-04-28T17:12:54.292Z,49.80
2023-04-28T17:15:24.260Z,49.65
2023-04-28T17:17:54.852Z,49.29
2023-04-28T17:20:24.958Z,49.87
2023-04-28T17:22:54.537Z,49.59
2023-04-28T17:25:25.691Z,49.78
2023-04-28T17:27:55.707Z,49.49
2023-04-28T17:30:27.152Z,49.70
2023-04-28T17:32:57.014Z,49.33
2023-04-28T17:35:27.007Z,49.54
2023-04-28T17:37:57.315Z,49.32
2023-04-28T17:40:27.058Z,49.35
2023-04-28T17:42:58.104Z,49.28
2023-04-28T17:45:27.684Z,49.55
2023-04-28T17:48:02.233Z,50.06
2023-04-28T17:50:31.731Z,49.60
2023-04-28T17:53:02.306Z,49.04
2023-04-28T17:55:32.673Z,49.63
2023-04-28T17:58:02.541Z,49.25
2023-04-28T18:00:32.447Z,49.11
2023-04-28T18:03:05.217Z,49.66
2023-04-28T18:05:36.170Z,49.66
2023-04-28T18:08:06.621Z,49.13
2023-04-28T18:10:36.582Z,49.07
2023-04-28T18:13:09.001Z,49.35
2023-04-28T18:15:39.206Z,49.42
2023-04-28T18:18:09.708Z,49.15
2023-04-28T18:20:39.654Z,48.64
2023-04-28T18:23:10.410Z,48.27
2023-04-28T18:25:41.245Z,48.56
2023-04-28T18:28:12.194Z,48.46
2023-04-28T18:30:42.868Z,48.54
2023-04-28T18:33:12.978Z,48.46
2023-04-28T18:35:44.300Z,48.15
2023-04-28T18:38:15.043Z,47.51
2023-04-28T18:40:45.659Z,48.34
2023-04-28T18:43:16.016Z,48.01
2023-04-28T18:45:46.584Z,48.18
2023-04-28T18:48:17.079Z,48.25
2023-04-28T18:50:50.060Z,48.31
2023-04-28T18:53:20.023Z,48.27
2023-04-28T18:55:50.773Z,48.15
2023-04-28T18:58:20.968Z,48.47
2023-04-28T19:00:50.688Z,48.68
2023-04-28T19:03:20.710Z,48.01
2023-04-28T19:05:50.786Z,47.84
2023-04-28T19:08:23.589Z,48.86
2023-04-28T19:10:53.554Z,48.92
2023-04-28T19:13:24.385Z,48.42
2023-04-28T19:15:55.602Z,47.90
2023-04-28T19:18:25.466Z,48.82
2023-04-28T19:21:02.235Z,48.22
2023-04-28T19:23:33.858Z,48.08
2023-04-28T19:26:03.699Z,47.96
2023-04-28T19:28:34.090Z,47.82
2023-04-28T19:31:04.421Z,47.81
2023-04-28T19:33:34.715Z,48.34
2023-04-28T19:36:06.519Z,47.80
2023-04-28T19:38:38.542Z,48.17
2023-04-28T19:41:08.309Z,47.40
2023-04-28T19:43:39.061Z,47.64
2023-04-28T19:46:09.326Z,47.94
2023-04-28T19:48:39.372Z,47.56
2023-04-28T19:51:08.839Z,47.53
2023-04-28T19:53:41.717Z,48.16
2023-04-28T19:56:11.239Z,48.16
2023-04-28T19:58:42.032Z,48.76
2023-04-28T20:01:11.405Z,48.51
2023-04-28T20:03:41.154Z,48.52
2023-04-28T20:06:11.333Z,48.54
2023-04-28T20:08:40.789Z,48.68
2023-04-28T20:11:11.460Z,48.36
2023-04-28T20:13:41.093Z,48.51
2023-04-28T20:16:10.577Z,48.16
2023-04-28T20:18:39.854Z,47.96
2023-04-28T20:21:11.132Z,48.23
2023-04-28T20:23:40.450Z,48.21
2023-04-28T20:26:19.222Z,47.34
2023-04-28T20:28:49.611Z,47.82
2023-04-28T20:31:19.170Z,47.41
2023-04-28T20:33:48.817Z,47.41
2023-04-28T20:36:18.106Z,47.61
2023-04-28T20:38:47.751Z,47.83
2023-04-28T20:41:17.424Z,47.43
2023-04-28T20:43:48.152Z,47.22
2023-04-28T20:46:19.061Z,47.11
2023-04-28T20:48:48.639Z,47.71
2023-04-28T20:51:18.601Z,47.22
2023-04-28T20:53:48.433Z,47.19
2023-04-28T20:56:17.641Z,47.38
2023-04-28T20:58:48.225Z,47.40
2023-04-28T21:01:17.560Z,47.60
2023-04-28T21:03:46.765Z,47.16
2023-04-28T21:06:16.466Z,47.70
2023-04-28T21:08:46.193Z,48.14
2023-04-28T21:11:16.734Z,48.32
2023-04-28T21:13:47.234Z,48.15
2023-04-28T21:16:20.953Z,48.15
2023-04-28T21:18:51.207Z,48.29
2023-04-28T21:21:20.484Z,48.58
2023-04-28T21:23:50.031Z,48.77
2023-04-28T21:26:21.712Z,48.70
2023-04-28T21:28:51.583Z,48.62
2023-04-28T21:31:20.671Z,48.60
2023-04-28T21:33:50.087Z,48.94
2023-04-28T21:36:19.466Z,49.01
2023-04-28T21:38:48.756Z,48.95
2023-04-28T21:41:19.238Z,48.81
2023-04-28T21:43:48.836Z,49.29
2023-04-28T21:46:20.097Z,49.28
2023-04-28T21:48:49.445Z,49.89
2023-04-28T21:51:18.791Z,49.60
2023-04-28T21:53:48.058Z,49.67
2023-04-28T21:56:18.481Z,49.86
2023-04-28T21:58:47.626Z,49.89
2023-04-28T22:01:19.041Z,49.92
2023-04-28T22:03:49.440Z,49.12
2023-04-28T22:06:19.196Z,49.88
2023-04-28T22:08:48.478Z,50.06
2023-04-28T22:11:18.319Z,50.51
2023-04-28T22:13:47.660Z,50.79
2023-04-28T22:16:17.361Z,51.16
2023-04-28T22:18:46.926Z,50.32
2023-04-28T22:21:16.577Z,51.12
2023-04-28T22:23:45.856Z,50.97
2023-04-28T22:26:29.703Z,51.32
2023-04-28T22:28:59.279Z,51.47
2023-04-28T22:31:28.535Z,51.56
2023-04-28T22:33:57.814Z,51.55
2023-04-28T22:36:27.006Z,51.63
2023-04-28T22:38:56.742Z,51.93
2023-04-28T22:41:26.105Z,52.03
2023-04-28T22:43:55.070Z,52.35
2023-04-28T22:46:24.365Z,51.94
2023-04-28T22:48:53.855Z,52.00
2023-04-28T22:51:22.979Z,51.75
2023-04-28T22:53:52.204Z,51.79
2023-04-28T22:56:22.117Z,51.94
2023-04-28T22:58:51.365Z,51.97
2023-04-28T23:01:20.720Z,52.20
2023-04-28T23:03:51.873Z,52.15
2023-04-28T23:06:21.492Z,52.33
2023-04-28T23:08:50.678Z,52.29
2023-04-28T23:11:19.976Z,52.25
2023-04-28T23:13:49.509Z,51.87
2023-04-28T23:16:19.388Z,52.34
2023-04-28T23:18:49.005Z,52.29
2023-04-28T23:21:18.442Z,52.66
2023-04-28T23:23:47.657Z,52.86
2023-04-28T23:26:17.399Z,52.68
2023-04-28T23:28:46.813Z,51.97
2023-04-28T23:31:15.897Z,51.97
2023-04-28T23:33:45.256Z,51.63
2023-04-28T23:36:14.855Z,51.40
2023-04-28T23:38:44.060Z,51.01
2023-04-28T23:41:13.183Z,51.10
2023-04-28T23:43:42.441Z,51.47
2023-04-28T23:46:11.565Z,51.24
2023-04-28T23:48:41.073Z,51.56
2023-04-28T23:51:10.310Z,51.18
2023-04-28T23:53:39.488Z,51.15
2023-04-28T23:56:09.164Z,51.41
2023-04-28T23:58:38.828Z,51.12
